Time;durP1;ratioP1;P1;durP2;ratioP2;P2;SDS_P1;SDS_P2;PMS_P1;PMS_P2;Temp;Humidity;BMP_temperature;BMP_pressure;BME280_temperature;BME280_humidity;BME280_pressure;Samples;Min_cycle;Max_cycle;Signal;HPM_P1;HPM_P2
2021/04/11 00:00:43;;;;;;;13.98;11.25;;;4.30;99.90;;;;;;4999577;28;20030;-43
2021/04/11 00:03:14;;;;;;;13.93;11.43;;;4.30;99.90;;;;;;5000493;28;20052;-44
2021/04/11 00:05:41;;;;;;;13.30;10.23;;;4.30;99.90;;;;;;4998689;28;20029;-43
2021/04/11 00:08:09;;;;;;;12.80;10.40;;;4.30;99.90;;;;;;5001921;28;20032;-43
2021/04/11 00:10:38;;;;;;;15.52;11.77;;;4.20;99.90;;;;;;4996732;28;20037;-43
2021/04/11 00:13:07;;;;;;;15.38;11.52;;;4.20;99.90;;;;;;5003036;28;20041;-43
2021/04/11 00:15:33;;;;;;;14.63;11.63;;;4.20;99.90;;;;;;4994136;28;20703;-43
2021/04/11 00:17:59;;;;;;;14.43;11.25;;;4.20;99.90;;;;;;5004286;28;20030;-44
2021/04/11 00:20:25;;;;;;;13.48;10.55;;;4.20;99.90;;;;;;4994116;28;20067;-43
2021/04/11 00:22:51;;;;;;;10.57;9.32;;;4.10;99.90;;;;;;5004638;28;20041;-43
2021/04/11 00:25:28;;;;;;;12.23;9.95;;;4.10;99.90;;;;;;4993884;28;20022;-43
2021/04/11 00:27:53;;;;;;;11.25;9.85;;;4.10;99.90;;;;;;5005445;28;20033;-43
2021/04/11 00:30:20;;;;;;;13.43;10.00;;;4.10;99.90;;;;;;4993018;28;20486;-43
2021/04/11 00:32:46;;;;;;;10.25;9.20;;;4.10;99.90;;;;;;5005297;28;20140;-43
2021/04/11 00:35:13;;;;;;;14.23;11.05;;;4.10;99.90;;;;;;4992647;28;20023;-43
2021/04/11 00:37:38;;;;;;;14.60;11.00;;;4.00;99.90;;;;;;4995723;28;20035;-44
2021/04/11 00:40:10;;;;;;;10.35;8.95;;;4.00;99.90;;;;;;4995701;28;20041;-44
2021/04/11 00:42:43;;;;;;;10.40;9.38;;;4.00;99.90;;;;;;4986195;28;20038;-44
2021/04/11 00:45:16;;;;;;;14.60;11.13;;;4.00;99.90;;;;;;4994734;28;20033;-44
2021/04/11 00:47:42;;;;;;;;;;;4.00;99.90;;;;;;4987572;28;20430;-44
2021/04/11 00:50:12;;;;;;;14.63;10.90;;;4.00;99.90;;;;;;4992792;28;19916;-44
2021/04/11 00:52:37;;;;;;;15.27;10.93;;;3.90;99.90;;;;;;4988390;28;20057;-44
2021/04/11 00:55:03;;;;;;;15.20;13.00;;;3.90;99.90;;;;;;4991356;28;20022;-44
2021/04/11 00:57:30;;;;;;;14.32;12.52;;;3.90;99.90;;;;;;4991208;28;20124;-41
2021/04/11 00:59:56;;;;;;;14.13;11.05;;;3.90;99.90;;;;;;4988647;28;20042;-42
2021/04/11 01:02:22;;;;;;;12.85;11.20;;;3.90;99.90;;;;;;4993948;28;20045;-43
2021/04/11 01:04:48;;;;;;;13.50;11.30;;;3.90;99.90;;;;;;4985587;28;20023;-43
2021/04/11 01:07:15;;;;;;;17.80;12.23;;;3.80;99.90;;;;;;4993903;28;20171;-43
2021/04/11 01:09:44;;;;;;;14.27;11.75;;;3.80;99.90;;;;;;5003117;28;20049;-42
2021/04/11 01:12:15;;;;;;;14.65;12.02;;;3.90;99.90;;;;;;4993068;28;20792;-42
2021/04/11 01:14:41;;;;;;;16.00;12.80;;;3.80;99.90;;;;;;5003484;28;20193;-42
2021/04/11 01:17:16;;;;;;;11.48;10.07;;;3.80;99.90;;;;;;4993336;28;20527;-42
2021/04/11 01:19:42;;;;;;;14.65;11.52;;;3.80;99.90;;;;;;5003104;28;20068;-42
2021/04/11 01:22:13;;;;;;;14.90;11.77;;;3.80;99.90;;;;;;4994966;28;20037;-42
2021/04/11 01:24:43;;;;;;;15.07;12.35;;;3.80;99.90;;;;;;4987178;28;20105;-43
2021/04/11 01:27:12;;;;;;;16.17;12.20;;;3.80;99.90;;;;;;5000817;28;20040;-42
2021/04/11 01:29:40;;;;;;;12.52;10.60;;;3.80;99.90;;;;;;5006286;28;20056;-42
2021/04/11 01:32:07;;;;;;;12.60;10.23;;;3.70;99.90;;;;;;5002705;28;20539;-43
2021/04/11 01:34:32;;;;;;;11.98;10.10;;;3.80;99.90;;;;;;4989086;28;20026;-43
2021/04/11 01:36:59;;;;;;;12.75;10.55;;;3.80;99.90;;;;;;4997306;28;20727;-42
2021/04/11 01:39:29;;;;;;;12.77;10.30;;;3.80;99.90;;;;;;4988271;28;20022;-43
2021/04/11 01:41:56;;;;;;;10.68;9.57;;;3.80;99.90;;;;;;4997115;28;20026;-43
2021/04/11 01:44:26;;;;;;;12.57;10.60;;;3.80;99.90;;;;;;4992188;28;20427;-43
2021/04/11 01:46:53;;;;;;;11.95;9.23;;;3.80;99.90;;;;;;4994779;28;20026;-43
2021/04/11 01:49:21;;;;;;;12.48;9.85;;;3.80;99.90;;;;;;4993612;28;20046;-43
2021/04/11 01:51:51;;;;;;;16.33;11.38;;;3.80;99.90;;;;;;4992786;28;20040;-45
2021/04/11 01:54:27;;;;;;;14.88;10.98;;;3.80;99.90;;;;;;4995167;28;20041;-43
2021/04/11 01:56:54;;;;;;;9.30;7.68;;;3.80;99.90;;;;;;4992389;28;20361;-42
2021/04/11 01:59:28;;;;;;;10.73;9.48;;;3.80;99.90;;;;;;4996905;28;20137;-43
2021/04/11 02:01:54;;;;;;;11.25;9.88;;;3.80;99.90;;;;;;4991005;28;20040;-42
2021/04/11 02:04:21;;;;;;;16.25;11.48;;;3.80;99.90;;;;;;4997871;28;20034;-42
2021/04/11 02:06:51;;;;;;;10.80;9.30;;;3.80;99.90;;;;;;4989019;28;20038;-43
2021/04/11 02:09:20;;;;;;;8.40;7.60;;;3.80;99.90;;;;;;4998874;28;20038;-42
2021/04/11 02:11:48;;;;;;;9.32;7.55;;;3.80;99.90;;;;;;4989554;28;20593;-42
2021/04/11 02:14:14;;;;;;;8.25;7.35;;;3.80;99.90;;;;;;4999194;28;20064;-42
2021/04/11 02:16:40;;;;;;;12.05;10.25;;;3.80;99.90;;;;;;4988099;28;20053;-42
2021/04/11 02:19:18;;;;;;;10.55;9.20;;;3.80;99.90;;;;;;4996170;28;20022;-43
2021/04/11 02:21:49;;;;;;;11.07;9.20;;;3.80;99.90;;;;;;5006836;28;20026;-43
2021/04/11 02:24:15;;;;;;;12.10;10.27;;;3.80;99.90;;;;;;4995493;28;20536;-43
2021/04/11 02:26:42;;;;;;;12.05;10.15;;;3.80;99.90;;;;;;5007738;28;20034;-43
2021/04/11 02:29:13;;;;;;;13.68;10.68;;;3.80;99.90;;;;;;4994701;28;20022;-43
2021/04/11 02:31:38;;;;;;;15.85;11.55;;;3.80;99.90;;;;;;5007406;28;20374;-43
2021/04/11 02:34:08;;;;;;;13.98;10.57;;;3.80;99.90;;;;;;4995479;28;20429;-43
2021/04/11 02:36:39;;;;;;;15.82;12.23;;;3.80;99.90;;;;;;4987012;28;20104;-43
2021/04/11 02:39:12;;;;;;;12.40;10.38;;;3.90;99.90;;;;;;4994642;28;20453;-43
2021/04/11 02:41:38;;;;;;;10.38;8.38;;;3.90;99.90;;;;;;5006414;28;20037;-44
2021/04/11 02:44:08;;;;;;;11.75;9.32;;;3.80;99.90;;;;;;4997332;28;20026;-43
2021/04/11 02:46:36;;;;;;;11.35;8.35;;;3.80;99.90;;;;;;5004630;28;20144;-43
2021/04/11 02:49:03;;;;;;;13.27;9.05;;;3.80;99.90;;;;;;4999230;28;20042;-43
2021/04/11 02:51:32;;;;;;;9.25;7.70;;;3.90;99.90;;;;;;5001905;28;20780;-43
2021/04/11 02:53:59;;;;;;;9.07;7.57;;;3.90;99.90;;;;;;5001448;28;20048;-44
2021/04/11 02:56:26;;;;;;;10.52;8.02;;;3.90;99.90;;;;;;4992214;28;20038;-44
2021/04/11 02:58:52;;;;;;;7.30;6.55;;;3.90;99.90;;;;;;4993211;28;20137;-43
2021/04/11 03:01:25;;;;;;;5.88;5.28;;;3.90;99.90;;;;;;4998690;28;20618;-43
2021/04/11 03:03:50;;;;;;;6.53;5.20;;;3.90;99.90;;;;;;5004260;28;20100;-43
2021/04/11 03:06:20;;;;;;;6.20;5.60;;;3.90;99.90;;;;;;4996751;28;20773;-43
2021/04/11 03:08:50;;;;;;;4.88;4.38;;;3.90;99.90;;;;;;5005232;28;20082;-43
2021/04/11 03:11:21;;;;;;;5.20;4.70;;;3.90;99.90;;;;;;4995583;28;20022;-43
2021/04/11 03:13:47;;;;;;;4.57;4.03;;;3.90;99.90;;;;;;5004982;28;20087;-43
2021/04/11 03:16:12;;;;;;;4.50;4.10;;;3.90;99.90;;;;;;4996225;28;20026;-43
2021/04/11 03:18:40;;;;;;;4.30;3.90;;;3.90;99.90;;;;;;5006141;28;20029;-44
2021/04/11 03:21:07;;;;;;;3.38;3.10;;;3.90;99.90;;;;;;5001956;28;20018;-44
2021/04/11 03:23:33;;;;;;;3.67;3.38;;;3.90;99.90;;;;;;5006800;28;20143;-43
2021/04/11 03:26:35;;;;;;;3.35;2.80;;;3.90;99.90;;;;;;4993548;28;20094;-44
2021/04/11 03:29:10;;;;;;;3.67;3.38;;;3.90;99.90;;;;;;5005033;28;20038;-43
2021/04/11 03:31:48;;;;;;;4.50;3.90;;;4.00;99.90;;;;;;4995272;28;20029;-43
2021/04/11 03:34:17;;;;;;;3.38;3.08;;;4.00;99.90;;;;;;5006226;28;20187;-43
2021/04/11 03:36:43;;;;;;;4.35;3.53;;;4.00;99.90;;;;;;4994402;28;20099;-43
2021/04/11 03:39:12;;;;;;;3.28;2.95;;;4.00;99.90;;;;;;4987859;28;20034;-43
2021/04/11 03:41:38;;;;;;;4.13;3.15;;;4.00;99.90;;;;;;4998982;28;20061;-43
2021/04/11 03:44:08;;;;;;;3.42;3.10;;;4.00;99.90;;;;;;4986706;28;20027;-43
2021/04/11 03:46:50;;;;;;;2.88;2.65;;;4.00;99.90;;;;;;4998579;28;20360;-43
2021/04/11 03:49:22;;;;;;;4.03;3.40;;;4.00;99.90;;;;;;4986712;28;20113;-42
2021/04/11 03:51:50;;;;;;;3.53;3.22;;;4.00;99.90;;;;;;4997955;28;20061;-42
2021/04/11 03:54:30;;;;;;;3.65;3.35;;;4.00;99.90;;;;;;4986559;28;20026;-42
2021/04/11 03:57:07;;;;;;;3.30;3.00;;;4.00;99.90;;;;;;5003570;28;20040;-42
2021/04/11 03:59:38;;;;;;;3.35;3.05;;;4.00;99.90;;;;;;4977612;28;20107;-42
2021/04/11 04:02:06;;;;;;;3.30;3.00;;;4.00;99.90;;;;;;4998113;28;20034;-43
2021/04/11 04:04:40;;;;;;;3.28;2.97;;;4.10;99.90;;;;;;5005637;28;20124;-43
2021/04/11 04:07:18;;;;;;;2.60;2.40;;;4.10;99.90;;;;;;4993252;28;20114;-43
2021/04/11 04:09:55;;;;;;;3.00;2.78;;;4.10;99.90;;;;;;4985856;28;20206;-43
2021/04/11 04:12:42;;;;;;;4.45;3.25;;;4.10;99.90;;;;;;4995685;28;20045;-43
2021/04/11 04:15:34;;;;;;;4.38;3.10;;;4.10;99.90;;;;;;4989430;28;20072;-43
2021/04/11 04:18:22;;;;;;;3.13;2.90;;;4.10;99.90;;;;;;4999134;28;20102;-43
2021/04/11 04:21:04;;;;;;;4.00;3.60;;;4.10;99.90;;;;;;5003093;28;20057;-43
2021/04/11 04:23:49;;;;;;;3.63;3.27;;;4.10;99.90;;;;;;4996864;28;20061;-43
2021/04/11 04:26:42;;;;;;;3.60;3.28;;;4.10;99.90;;;;;;4987599;28;20285;-42
2021/04/11 04:29:10;;;;;;;3.17;2.90;;;4.10;99.90;;;;;;4995585;28;20029;-43
2021/04/11 04:32:06;;;;;;;3.03;2.83;;;4.10;99.90;;;;;;5003283;28;20038;-43
2021/04/11 04:34:43;;;;;;;4.10;3.00;;;4.10;99.90;;;;;;4998775;28;20132;-43
2021/04/11 04:37:17;;;;;;;3.50;2.45;;;4.20;99.90;;;;;;5002007;28;20073;-43
2021/04/11 04:40:04;;;;;;;3.80;3.20;;;4.20;99.90;;;;;;5005472;28;20080;-43
2021/04/11 04:42:29;;;;;;;2.50;2.30;;;4.20;99.90;;;;;;4998074;28;20038;-44
2021/04/11 04:45:07;;;;;;;3.63;3.03;;;4.20;99.90;;;;;;4992893;28;20022;-44
2021/04/11 04:47:53;;;;;;;4.78;3.60;;;4.20;99.90;;;;;;4988007;28;20470;-43
2021/04/11 04:50:36;;;;;;;3.08;2.58;;;4.20;99.90;;;;;;5003291;28;20164;-43
2021/04/11 04:53:07;;;;;;;3.50;3.00;;;4.20;99.90;;;;;;4998091;28;20058;-43
2021/04/11 04:55:36;;;;;;;2.85;2.65;;;4.20;99.90;;;;;;4999793;28;20033;-43
2021/04/11 04:58:10;;;;;;;2.85;2.50;;;4.20;99.90;;;;;;4999299;28;20130;-43
2021/04/11 05:00:45;;;;;;;3.60;2.92;;;4.20;99.90;;;;;;4998577;28;20029;-43
2021/04/11 05:03:13;;;;;;;4.30;3.50;;;4.30;99.90;;;;;;4999206;28;20096;-43
2021/04/11 05:05:46;;;;;;;3.25;2.95;;;4.30;99.90;;;;;;4997694;28;20116;-42
2021/04/11 05:08:24;;;;;;;5.15;3.85;;;4.30;99.90;;;;;;5001080;28;20038;-43
2021/04/11 05:10:57;;;;;;;3.65;3.35;;;4.30;99.90;;;;;;4997904;28;20045;-43
2021/04/11 05:13:25;;;;;;;3.90;3.60;;;4.30;99.90;;;;;;5000373;28;20097;-42
2021/04/11 05:16:15;;;;;;;3.42;3.13;;;4.30;99.90;;;;;;4995269;28;20092;-43
2021/04/11 05:18:45;;;;;;;3.65;3.33;;;4.30;99.90;;;;;;5000185;28;20358;-43
2021/04/11 05:21:18;;;;;;;3.63;3.22;;;4.40;99.90;;;;;;4997012;28;20466;-43
2021/04/11 05:23:52;;;;;;;3.08;2.88;;;4.30;99.90;;;;;;5000523;28;20020;-43
2021/04/11 05:26:24;;;;;;;3.75;3.40;;;4.40;99.90;;;;;;4997143;28;20413;-43
2021/04/11 05:28:55;;;;;;;3.90;3.05;;;4.40;99.90;;;;;;5001501;28;20030;-43
2021/04/11 05:31:27;;;;;;;5.32;3.60;;;4.40;99.90;;;;;;4996073;28;20041;-43
2021/04/11 05:33:54;;;;;;;3.58;3.28;;;4.40;99.90;;;;;;5002342;28;20033;-43
2021/04/11 05:37:00;;;;;;;3.50;3.20;;;4.40;99.90;;;;;;4994435;28;20014;-43
2021/04/11 05:39:55;;;;;;;3.90;3.00;;;4.40;99.90;;;;;;4988773;28;20141;-43
2021/04/11 05:42:31;;;;;;;5.60;3.63;;;4.40;99.90;;;;;;4993295;28;20034;-43
2021/04/11 05:45:12;;;;;;;4.65;4.10;;;4.40;99.90;;;;;;4996809;28;20116;-43
2021/04/11 05:47:59;;;;;;;6.28;3.45;;;4.40;99.90;;;;;;5000857;28;20489;-42
2021/04/11 05:50:48;;;;;;;5.97;4.65;;;4.40;99.90;;;;;;5000456;28;20041;-43
2021/04/11 05:53:24;;;;;;;3.58;3.03;;;4.40;99.90;;;;;;4984893;28;20058;-43
2021/04/11 05:55:57;;;;;;;2.90;2.70;;;4.40;99.90;;;;;;4996671;28;20033;-44
2021/04/11 05:58:26;;;;;;;3.03;2.72;;;4.40;99.90;;;;;;4993985;28;20040;-44
2021/04/11 06:00:59;;;;;;;3.38;3.00;;;4.40;99.90;;;;;;4997472;28;20044;-42
2021/04/11 06:03:27;;;;;;;4.05;3.00;;;4.40;99.90;;;;;;4998742;28;20026;-43
2021/04/11 06:06:14;;;;;;;3.83;2.83;;;4.40;99.90;;;;;;4999024;28;20029;-43
2021/04/11 06:08:56;;;;;;;4.32;3.00;;;4.40;99.90;;;;;;4983407;28;20443;-44
2021/04/11 06:11:44;;;;;;;3.85;3.22;;;4.40;99.90;;;;;;4997926;28;20034;-43
2021/04/11 06:14:31;;;;;;;4.20;2.58;;;4.40;99.90;;;;;;4980592;28;20455;-43
2021/04/11 06:16:57;;;;;;;3.40;3.10;;;4.40;99.90;;;;;;4999083;28;20029;-43
2021/04/11 06:19:24;;;;;;;3.30;2.88;;;4.40;99.90;;;;;;4989753;28;20113;-43
2021/04/11 06:22:11;;;;;;;4.38;3.50;;;4.40;99.90;;;;;;4999810;28;20497;-43
2021/04/11 06:24:46;;;;;;;7.00;4.18;;;4.50;99.90;;;;;;4988326;28;20030;-43
2021/04/11 06:27:15;;;;;;;5.00;3.33;;;4.50;99.90;;;;;;5000684;28;20029;-43
2021/04/11 06:30:21;;;;;;;4.28;3.10;;;4.50;99.90;;;;;;4987896;28;20088;-43
2021/04/11 06:33:16;;;;;;;2.95;2.65;;;4.50;99.90;;;;;;4905716;29;20130;-43
2021/04/11 06:35:54;;;;;;;3.47;2.60;;;4.60;99.90;;;;;;4906541;29;20108;-45
2021/04/11 06:38:30;;;;;;;3.67;2.50;;;4.60;99.90;;;;;;4973512;28;20038;-43
2021/04/11 06:41:25;;;;;;;2.42;2.10;;;4.60;99.90;;;;;;5003951;28;20033;-44
2021/04/11 06:44:20;;;;;;;3.15;2.38;;;4.60;99.90;;;;;;4992354;28;20111;-44
2021/04/11 06:47:06;;;;;;;3.22;2.45;;;4.70;99.90;;;;;;5003244;28;20218;-43
2021/04/11 06:49:50;;;;;;;3.95;2.30;;;4.70;99.90;;;;;;5003213;28;20042;-44
2021/04/11 06:52:39;;;;;;;4.28;2.30;;;4.70;99.90;;;;;;5003204;28;20156;-43
2021/04/11 06:55:12;;;;;;;3.65;2.30;;;4.70;99.90;;;;;;4987908;28;20022;-44
2021/04/11 06:57:41;;;;;;;2.30;2.10;;;4.70;99.90;;;;;;4990609;28;20029;-44
2021/04/11 07:00:40;;;;;;;4.50;2.20;;;4.80;99.90;;;;;;5005296;28;20456;-43
2021/04/11 07:03:36;;;;;;;3.05;2.22;;;4.90;99.90;;;;;;4996519;28;20037;-35
2021/04/11 07:06:49;;;;;;;2.88;1.80;;;5.10;99.90;;;;;;5007857;28;20156;-33
2021/04/11 07:09:22;;;;;;;3.53;2.10;;;5.20;99.90;;;;;;4998995;28;20129;-34
2021/04/11 07:12:24;;;;;;;3.25;2.90;;;5.20;99.90;;;;;;4988452;28;20113;-43
2021/04/11 07:15:21;;;;;;;2.70;2.00;;;5.20;99.90;;;;;;5000111;28;20025;-33
2021/04/11 07:17:56;;;;;;;5.57;3.65;;;5.20;99.90;;;;;;5001618;28;20092;-37
2021/04/11 07:20:42;;;;;;;2.95;2.42;;;5.20;99.70;;;;;;4993173;28;20081;-34
2021/04/11 07:23:54;;;;;;;3.28;2.25;;;5.30;99.50;;;;;;5003041;28;20036;-33
2021/04/11 07:27:10;;;;;;;2.22;2.00;;;5.30;99.50;;;;;;4989373;28;20089;-33
2021/04/11 07:29:57;;;;;;;3.78;2.05;;;5.20;99.40;;;;;;4924558;29;20027;-32
2021/04/11 07:32:52;;;;;;;3.15;2.25;;;5.20;99.60;;;;;;4993735;28;20476;-42
2021/04/11 07:35:31;;;;;;;3.90;2.10;;;5.20;99.50;;;;;;5001685;28;20498;-45
2021/04/11 07:38:31;;;;;;;3.35;2.10;;;5.20;99.60;;;;;;5004857;28;20504;-44
2021/04/11 07:41:04;;;;;;;4.18;2.35;;;5.20;99.60;;;;;;5000904;28;20029;-43
2021/04/11 07:44:07;;;;;;;3.65;2.17;;;5.20;99.60;;;;;;5002077;28;20031;-43
2021/04/11 07:46:59;;;;;;;3.92;2.05;;;5.20;99.60;;;;;;5004038;28;20034;-43
2021/04/11 07:49:53;;;;;;;3.17;2.20;;;5.10;99.50;;;;;;4995456;28;20519;-43
2021/04/11 07:52:18;;;;;;;5.97;2.55;;;5.10;99.40;;;;;;4987748;28;20062;-43
2021/04/11 07:55:04;;;;;;;3.85;2.53;;;5.20;99.50;;;;;;4992972;28;20037;-43
2021/04/11 07:57:54;;;;;;;4.07;2.63;;;5.20;99.50;;;;;;4991871;28;20022;-44
2021/04/11 08:00:28;;;;;;;4.57;2.50;;;5.20;99.30;;;;;;4996848;28;20026;-42
2021/04/11 08:03:16;;;;;;;4.55;2.30;;;5.20;99.20;;;;;;4999050;28;20049;-43
2021/04/11 08:06:17;;;;;;;3.42;2.15;;;5.20;99.20;;;;;;4994660;28;20568;-43
2021/04/11 08:09:01;;;;;;;4.97;1.98;;;5.20;99.00;;;;;;4995433;28;20030;-43
2021/04/11 08:11:55;;;;;;;3.53;2.00;;;5.10;99.10;;;;;;4995529;28;20485;-44
2021/04/11 08:14:50;;;;;;;3.90;2.22;;;5.10;99.20;;;;;;5001917;28;20034;-43
2021/04/11 08:17:39;;;;;;;4.15;1.98;;;5.20;99.10;;;;;;5001536;28;20032;-43
2021/04/11 08:20:43;;;;;;;3.78;2.33;;;5.20;99.00;;;;;;4998892;28;20038;-43
2021/04/11 08:23:27;;;;;;;4.75;2.22;;;5.30;99.00;;;;;;4997219;28;20433;-43
2021/04/11 08:26:22;;;;;;;4.65;2.25;;;5.30;98.80;;;;;;4997675;28;20029;-43
2021/04/11 08:29:14;;;;;;;4.32;2.47;;;5.40;98.70;;;;;;4992962;28;20172;-44
2021/04/11 08:32:16;;;;;;;4.40;2.10;;;5.40;98.30;;;;;;4990837;28;20183;-43
2021/04/11 08:35:02;;;;;;;3.22;1.88;;;5.30;98.30;;;;;;4984663;28;20382;-43
2021/04/11 08:37:37;;;;;;;4.15;2.00;;;5.30;98.40;;;;;;4993407;28;20112;-43
2021/04/11 08:40:29;;;;;;;3.15;1.70;;;5.30;98.50;;;;;;4985405;28;20109;-43
2021/04/11 08:43:08;;;;;;;2.38;1.80;;;5.40;98.70;;;;;;4990197;28;20447;-44
2021/04/11 08:46:13;;;;;;;5.13;2.88;;;5.50;98.70;;;;;;4988202;28;20022;-44
2021/04/11 08:49:02;;;;;;;5.13;1.88;;;5.60;98.50;;;;;;4986202;28;20125;-43
2021/04/11 08:51:44;;;;;;;2.83;1.77;;;5.50;98.30;;;;;;4992787;28;20478;-44
2021/04/11 08:54:46;;;;;;;2.63;1.85;;;5.60;98.30;;;;;;4985040;28;20052;-44
2021/04/11 08:57:38;;;;;;;2.60;1.75;;;5.60;98.20;;;;;;4997629;28;20049;-43
2021/04/11 09:00:17;;;;;;;2.50;1.60;;;5.70;98.30;;;;;;4985434;28;20037;-44
2021/04/11 09:03:16;;;;;;;3.60;1.85;;;5.90;98.10;;;;;;4990386;28;20072;-43
2021/04/11 09:06:08;;;;;;;2.92;1.92;;;6.00;98.20;;;;;;5002910;28;20022;-43
2021/04/11 09:09:06;;;;;;;2.55;1.60;;;6.10;97.50;;;;;;4995999;28;20043;-43
2021/04/11 09:11:58;;;;;;;3.40;1.45;;;6.10;97.50;;;;;;5000079;28;20484;-44
2021/04/11 09:14:46;;;;;;;3.38;1.80;;;6.20;97.40;;;;;;4987625;28;20088;-43
2021/04/11 09:17:21;;;;;;;5.40;1.30;;;6.30;97.30;;;;;;4994048;28;20034;-44
2021/04/11 09:20:11;;;;;;;1.80;1.10;;;6.20;97.00;;;;;;4986859;28;20453;-44
2021/04/11 09:22:47;;;;;;;2.35;1.48;;;6.20;96.70;;;;;;4986539;28;20458;-43
2021/04/11 09:25:21;;;;;;;2.58;1.27;;;6.30;96.50;;;;;;4999759;28;20029;-43
2021/04/11 09:28:11;;;;;;;2.60;1.55;;;6.30;96.70;;;;;;4988816;28;20022;-43
2021/04/11 09:31:05;;;;;;;2.30;1.20;;;6.30;97.20;;;;;;4991226;28;20029;-43
2021/04/11 09:33:52;;;;;;;2.90;1.27;;;6.40;96.80;;;;;;4992317;28;20042;-43
2021/04/11 09:36:39;;;;;;;2.08;1.30;;;6.40;96.80;;;;;;4986971;28;20066;-43
2021/04/11 09:39:14;;;;;;;1.75;1.30;;;6.40;96.90;;;;;;4988554;28;20055;-42
2021/04/11 09:41:59;;;;;;;2.13;1.10;;;6.50;96.70;;;;;;4985871;28;20053;-42
2021/04/11 09:44:24;;;;;;;2.15;1.33;;;6.60;96.60;;;;;;4992907;28;20057;-45
2021/04/11 09:47:00;;;;;;;2.38;1.10;;;6.70;96.40;;;;;;5007598;28;20292;-43
2021/04/11 09:49:37;;;;;;;2.58;1.20;;;6.80;96.10;;;;;;4993197;28;21298;-43
2021/04/11 09:52:27;;;;;;;2.05;1.02;;;6.90;96.30;;;;;;5004284;28;20057;-44
2021/04/11 09:55:15;;;;;;;2.28;0.95;;;7.00;95.90;;;;;;5003577;28;20030;-43
2021/04/11 09:58:09;;;;;;;3.40;0.93;;;7.00;95.70;;;;;;4996001;28;20022;-44
2021/04/11 10:00:54;;;;;;;2.25;1.10;;;7.10;95.80;;;;;;5002786;28;20052;-43
2021/04/11 10:03:45;;;;;;;6.03;1.20;;;7.00;94.50;;;;;;5004379;28;20073;-44
2021/04/11 10:06:36;;;;;;;2.88;1.20;;;6.90;95.10;;;;;;4999749;28;20398;-44
2021/04/11 10:09:30;;;;;;;3.40;1.10;;;6.90;95.20;;;;;;5001376;28;20056;-44
2021/04/11 10:12:23;;;;;;;3.70;1.08;;;6.90;95.00;;;;;;5004811;28;20076;-42
2021/04/11 10:15:02;;;;;;;1.95;1.00;;;6.90;94.70;;;;;;4996118;28;20040;-43
2021/04/11 10:17:39;;;;;;;1.60;1.00;;;6.80;95.40;;;;;;5003291;28;20117;-44
2021/04/11 10:20:23;;;;;;;2.15;1.08;;;6.90;95.70;;;;;;4993609;28;20038;-43
2021/04/11 10:22:58;;;;;;;2.20;1.10;;;7.00;95.90;;;;;;4998676;28;20033;-43
2021/04/11 10:25:33;;;;;;;3.78;1.50;;;7.20;95.70;;;;;;5002316;28;20022;-43
2021/04/11 10:28:14;;;;;;;3.10;1.17;;;7.40;95.00;;;;;;5001189;28;20030;-43
2021/04/11 10:30:42;;;;;;;5.45;1.42;;;7.30;94.90;;;;;;5002676;28;20103;-43
2021/04/11 10:33:33;;;;;;;3.53;1.42;;;7.10;94.80;;;;;;5003521;28;20034;-43
2021/04/11 10:36:12;;;;;;;4.97;1.50;;;6.90;95.50;;;;;;5002231;28;20030;-43
2021/04/11 10:38:50;;;;;;;4.07;1.45;;;6.60;96.10;;;;;;5000590;28;20033;-43
2021/04/11 10:41:34;;;;;;;2.60;1.40;;;6.40;97.00;;;;;;5000544;28;20022;-43
2021/04/11 10:44:39;;;;;;;4.13;1.70;;;6.40;97.70;;;;;;4990422;28;20438;-43
2021/04/11 10:47:47;;;;;;;1.98;1.20;;;6.40;97.70;;;;;;4984004;28;20026;-43
2021/04/11 10:50:37;;;;;;;2.63;1.67;;;6.40;97.90;;;;;;4958944;28;20026;-44
2021/04/11 10:53:33;;;;;;;4.03;1.95;;;6.30;98.20;;;;;;4994667;28;20067;-43
2021/04/11 10:56:20;;;;;;;4.20;1.63;;;6.40;98.50;;;;;;4993944;28;20061;-42
2021/04/11 10:59:00;;;;;;;5.28;2.22;;;6.50;98.60;;;;;;4997311;28;20034;-43
2021/04/11 11:01:48;;;;;;;8.48;1.60;;;6.60;98.40;;;;;;5004852;28;20028;-43
2021/04/11 11:04:22;;;;;;;2.30;1.38;;;6.70;98.30;;;;;;4992596;28;20030;-43
2021/04/11 11:07:15;;;;;;;3.78;1.33;;;6.80;97.80;;;;;;4989830;28;20084;-43
2021/04/11 11:10:31;;;;;;;5.72;1.70;;;6.70;98.00;;;;;;4990514;28;20584;-44
2021/04/11 11:13:53;;;;;;;4.13;1.60;;;6.70;98.00;;;;;;4906861;29;20120;-43
2021/04/11 11:16:31;;;;;;;5.38;1.88;;;6.70;97.90;;;;;;4854127;29;20724;-44
2021/04/11 11:19:26;;;;;;;2.28;1.20;;;6.70;97.30;;;;;;4920763;29;20676;-42
2021/04/11 11:22:26;;;;;;;2.83;1.45;;;6.70;97.60;;;;;;4985881;28;20042;-43
2021/04/11 11:25:13;;;;;;;3.58;1.30;;;6.80;96.90;;;;;;4952701;28;20041;-44
2021/04/11 11:27:45;;;;;;;4.53;1.60;;;6.80;96.60;;;;;;4997698;28;20022;-43
2021/04/11 11:30:45;;;;;;;2.20;1.40;;;6.90;95.50;;;;;;5000718;28;20136;-44
2021/04/11 11:33:39;;;;;;;4.13;1.20;;;7.00;95.60;;;;;;5001199;28;20528;-43
2021/04/11 11:36:37;;;;;;;4.53;1.40;;;7.00;94.70;;;;;;4991565;28;20029;-44
2021/04/11 11:39:27;;;;;;;5.78;1.40;;;6.90;94.70;;;;;;5002148;28;20040;-43
2021/04/11 11:42:10;;;;;;;4.20;1.10;;;6.90;94.50;;;;;;4998880;28;20049;-43
2021/04/11 11:44:42;;;;;;;4.07;1.33;;;6.80;94.60;;;;;;4995881;28;20022;-42
2021/04/11 11:47:24;;;;;;;3.15;1.38;;;6.90;95.10;;;;;;4993997;28;20032;-44
2021/04/11 11:50:14;;;;;;;3.15;1.27;;;7.00;95.20;;;;;;4997566;28;20033;-44
2021/04/11 11:53:29;;;;;;;2.60;1.48;;;7.00;94.60;;;;;;4992317;28;20137;-43
2021/04/11 11:56:04;;;;;;;2.53;1.13;;;7.10;94.10;;;;;;4941453;29;20479;-44
2021/04/11 11:58:40;;;;;;;10.93;3.75;;;7.20;94.30;;;;;;4985904;28;20049;-44
2021/04/11 12:01:26;;;;;;;3.90;1.50;;;7.40;94.20;;;;;;4985747;28;20033;-44
2021/04/11 12:04:13;;;;;;;5.45;1.65;;;7.60;93.60;;;;;;4998188;28;20052;-42
2021/04/11 12:06:47;;;;;;;4.85;1.45;;;7.70;93.40;;;;;;4989739;28;20047;-47
2021/04/11 12:09:30;;;;;;;2.10;1.50;;;7.80;93.20;;;;;;4997815;28;20029;-42
2021/04/11 12:12:23;;;;;;;6.38;1.65;;;7.90;93.50;;;;;;5000353;28;20030;-43
2021/04/11 12:15:13;;;;;;;4.32;1.85;;;8.10;92.60;;;;;;4984768;28;20034;-42
2021/04/11 12:17:52;;;;;;;3.92;2.00;;;8.20;92.40;;;;;;4996033;28;20038;-41
2021/04/11 12:20:22;;;;;;;3.15;1.55;;;8.30;92.30;;;;;;4991162;28;20022;-42
2021/04/11 12:22:53;;;;;;;3.80;1.77;;;8.30;92.50;;;;;;4989806;28;20446;-42
2021/04/11 12:25:25;;;;;;;4.45;1.50;;;8.40;91.90;;;;;;5003714;28;20342;-42
2021/04/11 12:27:52;;;;;;;2.80;1.08;;;8.30;91.20;;;;;;4989222;28;20022;-42
2021/04/11 12:30:33;;;;;;;3.22;1.25;;;8.10;90.00;;;;;;5000123;28;20021;-43
2021/04/11 12:33:20;;;;;;;6.63;2.40;;;8.00;91.00;;;;;;5001090;28;20117;-43
2021/04/11 12:36:06;;;;;;;5.53;1.70;;;7.90;91.40;;;;;;4998523;28;20030;-43
2021/04/11 12:38:48;;;;;;;5.30;1.73;;;7.70;91.60;;;;;;4994165;28;20092;-43
2021/04/11 12:41:22;;;;;;;3.08;1.42;;;7.70;91.90;;;;;;5000290;28;20050;-43
2021/04/11 12:43:58;;;;;;;3.22;1.48;;;7.70;92.00;;;;;;4998144;28;20025;-43
2021/04/11 12:46:30;;;;;;;3.03;1.48;;;7.70;91.90;;;;;;4994303;28;20027;-43
2021/04/11 12:49:14;;;;;;;2.00;1.15;;;7.70;92.00;;;;;;4992090;28;20026;-43
2021/04/11 12:52:03;;;;;;;5.53;1.30;;;7.60;91.70;;;;;;4989010;28;20027;-43
2021/04/11 12:54:35;;;;;;;3.72;1.30;;;7.60;91.70;;;;;;4992885;28;20109;-42
2021/04/11 12:57:08;;;;;;;2.70;1.10;;;7.50;91.70;;;;;;4991318;28;20026;-43
2021/04/11 12:59:41;;;;;;;3.70;1.10;;;7.50;91.10;;;;;;4997001;28;20109;-43
2021/04/11 13:02:15;;;;;;;3.03;1.10;;;7.60;91.20;;;;;;4997414;28;20045;-43
2021/04/11 13:04:46;;;;;;;2.85;1.20;;;7.60;91.40;;;;;;4994496;28;20030;-43
2021/04/11 13:07:20;;;;;;;5.03;1.23;;;7.60;90.90;;;;;;5001741;28;20029;-43
2021/04/11 13:10:07;;;;;;;2.70;1.20;;;7.70;91.20;;;;;;4992916;28;20116;-43
2021/04/11 13:13:03;;;;;;;1.30;1.02;;;7.70;91.10;;;;;;5001292;28;20042;-43
2021/04/11 13:15:37;;;;;;;3.90;1.23;;;7.80;90.80;;;;;;4997046;28;20030;-43
2021/04/11 13:18:05;;;;;;;4.47;1.10;;;7.90;91.00;;;;;;4988161;28;20029;-43
2021/04/11 13:21:00;;;;;;;2.85;1.00;;;8.00;90.30;;;;;;4994543;28;20041;-43
2021/04/11 13:23:58;;;;;;;1.83;1.00;;;8.20;90.60;;;;;;4990818;28;20091;-43
2021/04/11 13:27:06;;;;;;;2.90;0.80;;;8.40;90.60;;;;;;4999499;28;20021;-44
2021/04/11 13:29:47;;;;;;;2.58;1.02;;;8.50;88.80;;;;;;4993041;28;20076;-43
2021/04/11 13:32:23;;;;;;;1.90;0.85;;;8.60;88.00;;;;;;4993180;28;20045;-43
2021/04/11 13:35:03;;;;;;;2.50;1.08;;;8.60;86.40;;;;;;4996660;28;20075;-43
2021/04/11 13:37:34;;;;;;;9.70;2.05;;;8.60;85.30;;;;;;4983246;28;20031;-36
2021/04/11 13:40:05;;;;;;;3.30;1.00;;;8.50;85.50;;;;;;4997884;28;20466;-39
2021/04/11 13:42:50;;;;;;;2.75;0.90;;;8.50;86.00;;;;;;5000581;28;20037;-34
2021/04/11 13:45:52;;;;;;;2.45;0.60;;;8.50;82.70;;;;;;4997281;28;20391;-43
2021/04/11 13:48:28;;;;;;;1.97;0.80;;;8.50;84.70;;;;;;4999338;28;20018;-44
2021/04/11 13:51:30;;;;;;;4.00;0.90;;;8.50;83.60;;;;;;4999350;28;20020;-46
2021/04/11 13:54:05;;;;;;;3.85;0.95;;;8.50;84.90;;;;;;4999149;28;20050;-46
2021/04/11 13:57:01;;;;;;;3.95;0.82;;;8.40;83.70;;;;;;5002666;28;20034;-43